Terminal Aerodrome Forecast
Issued by NWS Green Bay, WI

Home | Current Version | Previous Version | Text Only | Print | Product List | Glossary Off
Versions: 1 2 3 4 5 6 7 8 9 10 11 12 13 14 15 16 17 18 19 20 21 22 23 24 25 26 27 28 29 30 31 32 33 34 35 36

000
FTUS43 KGRB 241700
TAFGRB
TAF
KGRB 241736Z 2418/2518 28008KT P6SM SCT025 BKN040
     FM242200 33007KT P6SM BKN025 OVC040
     FM250200 04011G18KT 6SM -SN BKN018 OVC035
     FM250400 04015G24KT P6SM OVC018
     FM251200 04015G25KT P6SM BKN020=

USA.gov is the U.S. government's official web portal to all federal, state and local government web resources and services.